createdAt,value
2022-12-04T00:01:00.165Z,10.5
2022-12-04T00:02:08.524Z,10.5
2022-12-04T00:03:17.093Z,10.7
2022-12-04T00:04:25.506Z,10.7
2022-12-04T00:05:33.800Z,10.7
2022-12-04T00:06:42.357Z,10
2022-12-04T00:07:50.775Z,10
2022-12-04T00:08:59.065Z,10
2022-12-04T00:10:07.615Z,9.7
2022-12-04T00:11:15.970Z,9.7
2022-12-04T00:12:24.314Z,9.7
2022-12-04T00:13:32.853Z,9.2
2022-12-04T00:15:16.339Z,9.2
2022-12-04T00:15:49.624Z,9.2
2022-12-04T00:16:58.097Z,9.8
2022-12-04T00:18:06.446Z,9.8
2022-12-04T00:19:14.801Z,9.8
2022-12-04T00:20:23.352Z,9.8
2022-12-04T00:21:31.713Z,9.8
2022-12-04T00:22:40.059Z,9.8
2022-12-04T00:23:48.674Z,10.5
2022-12-04T00:24:56.993Z,10.5
2022-12-04T00:26:05.395Z,10.5
2022-12-04T00:27:13.935Z,9.9
2022-12-04T00:28:22.280Z,9.9
2022-12-04T00:29:30.632Z,9.9
2022-12-04T00:30:39.186Z,10.8
2022-12-04T00:31:47.621Z,10.8
2022-12-04T00:32:55.911Z,10.8
2022-12-04T00:34:07.879Z,10.7
2022-12-04T00:35:12.816Z,10.7
2022-12-04T00:36:21.162Z,10.7
2022-12-04T00:37:29.726Z,11.7
2022-12-04T00:38:38.079Z,11.7
2022-12-04T00:39:46.512Z,11.7
2022-12-04T00:40:54.986Z,10.5
2022-12-04T00:42:03.329Z,10.5
2022-12-04T00:43:11.682Z,10.5
2022-12-04T00:44:20.242Z,10.8
2022-12-04T00:45:28.678Z,10.8
2022-12-04T00:46:36.942Z,10.8
2022-12-04T00:47:45.496Z,9.7
2022-12-04T00:48:53.847Z,9.7
2022-12-04T00:50:02.204Z,9.7
2022-12-04T00:51:10.817Z,11.2
2022-12-04T00:52:19.155Z,11.2
2022-12-04T00:53:27.542Z,11.2
2022-12-04T00:54:36.123Z,10.4
2022-12-04T00:55:44.492Z,10.4
2022-12-04T00:56:52.810Z,10.4
2022-12-04T00:58:01.369Z,10.6
2022-12-04T00:59:09.731Z,10.6
2022-12-04T01:00:18.080Z,10.6
2022-12-04T01:01:26.870Z,10.7
2022-12-04T01:02:35.027Z,10.7
2022-12-04T01:03:43.351Z,10.7
2022-12-04T01:04:51.910Z,10.3
2022-12-04T01:06:00.251Z,10.3
2022-12-04T01:07:08.606Z,10.3
2022-12-04T01:08:17.255Z,10.4
2022-12-04T01:09:25.527Z,10.4
2022-12-04T01:10:33.874Z,10.4
2022-12-04T01:11:42.442Z,11.2
2022-12-04T01:12:50.824Z,11.2
2022-12-04T01:13:59.137Z,11.2
2022-12-04T01:15:07.688Z,13.2
2022-12-04T01:16:16.143Z,13.2
2022-12-04T01:17:24.434Z,13.2
2022-12-04T01:18:32.989Z,11.7
2022-12-04T01:19:41.330Z,11.7
2022-12-04T01:20:49.678Z,11.7
2022-12-04T01:21:58.319Z,14
2022-12-04T01:23:06.669Z,14
2022-12-04T01:24:15.007Z,14
2022-12-04T01:25:23.563Z,15.3
2022-12-04T01:26:31.964Z,15.3
2022-12-04T01:27:40.312Z,15.3
2022-12-04T01:28:48.893Z,15.1
2022-12-04T01:29:57.454Z,15.1
2022-12-04T01:31:05.607Z,15.1
2022-12-04T01:32:14.215Z,15.5
2022-12-04T01:33:22.472Z,15.5
2022-12-04T01:34:30.803Z,15.5
2022-12-04T01:35:39.368Z,16.9
2022-12-04T01:36:47.710Z,16.9
2022-12-04T01:37:56.053Z,16.9
2022-12-04T01:39:04.641Z,16.799999
2022-12-04T01:40:12.984Z,16.799999
2022-12-04T01:41:21.368Z,16.799999
2022-12-04T01:42:29.926Z,16.799999
2022-12-04T01:43:38.292Z,16.799999
2022-12-04T01:44:46.657Z,16.799999
2022-12-04T01:45:55.272Z,17.200001
2022-12-04T01:47:03.573Z,17.200001
2022-12-04T01:48:11.947Z,17.200001
2022-12-04T01:49:20.509Z,17.299999
2022-12-04T01:50:28.858Z,17.299999
2022-12-04T01:51:37.208Z,17.299999
2022-12-04T01:52:45.813Z,18.1
2022-12-04T01:53:54.166Z,18.1
2022-12-04T01:55:02.507Z,18.1
2022-12-04T01:56:11.075Z,18.6
2022-12-04T01:57:19.412Z,18.6
2022-12-04T01:58:27.779Z,18.6
2022-12-04T01:59:36.333Z,18.4
2022-12-04T02:00:47.378Z,18.4
2022-12-04T02:01:53.144Z,18.4
2022-12-04T02:03:01.668Z,18.4
2022-12-04T02:04:09.925Z,18.4
2022-12-04T02:05:18.268Z,18.4
2022-12-04T02:06:26.824Z,19.299999
2022-12-04T02:07:35.245Z,19.299999
2022-12-04T02:08:43.511Z,19.299999
2022-12-04T02:09:52.148Z,20.1
2022-12-04T02:11:00.429Z,20.1
2022-12-04T02:12:08.784Z,20.1
2022-12-04T02:13:17.332Z,18.6
2022-12-04T02:14:25.670Z,18.6
2022-12-04T02:15:34.029Z,18.6
2022-12-04T02:16:42.638Z,18.6
2022-12-04T02:17:50.917Z,18.6
2022-12-04T02:18:59.252Z,18.6
2022-12-04T02:20:07.812Z,17.6
2022-12-04T02:21:16.167Z,17.6
2022-12-04T02:22:24.514Z,17.6
2022-12-04T02:23:33.068Z,17
2022-12-04T02:24:45.311Z,17
2022-12-04T02:25:49.762Z,17
2022-12-04T02:26:58.322Z,16.5
2022-12-04T02:28:06.681Z,16.5
2022-12-04T02:29:15.006Z,16.5
2022-12-04T02:30:23.646Z,18.299999
2022-12-04T02:31:31.908Z,18.299999
2022-12-04T02:32:40.296Z,18.299999
2022-12-04T02:33:48.813Z,18.1
2022-12-04T02:34:57.155Z,18.1
2022-12-04T02:36:05.506Z,18.1
2022-12-04T02:37:14.059Z,18.4
2022-12-04T02:38:22.391Z,18.4
2022-12-04T02:39:30.731Z,18.4
2022-12-04T02:40:39.302Z,17.799999
2022-12-04T02:41:47.650Z,17.799999
2022-12-04T02:42:55.996Z,17.799999
2022-12-04T02:44:04.541Z,18.700001
2022-12-04T02:45:12.887Z,18.700001
2022-12-04T02:46:21.303Z,18.700001
2022-12-04T02:47:29.813Z,18.5
2022-12-04T02:48:38.163Z,18.5
2022-12-04T02:49:46.474Z,18.5
2022-12-04T02:50:55.040Z,17.299999
2022-12-04T02:52:03.378Z,17.299999
2022-12-04T02:53:11.722Z,17.299999
2022-12-04T02:54:20.271Z,18.4
2022-12-04T02:55:28.627Z,18.4
2022-12-04T02:56:36.969Z,18.4
2022-12-04T02:57:45.526Z,17.799999
2022-12-04T02:58:53.902Z,17.799999
2022-12-04T03:00:02.263Z,17.799999
2022-12-04T03:01:10.837Z,17.9
2022-12-04T03:02:19.216Z,17.9
2022-12-04T03:03:27.496Z,17.9
2022-12-04T03:04:36.114Z,16.9
2022-12-04T03:05:44.441Z,16.9
2022-12-04T03:06:52.806Z,16.9
2022-12-04T03:08:01.420Z,17.5
2022-12-04T03:09:09.697Z,17.5
2022-12-04T03:10:18.045Z,17.5
2022-12-04T03:11:26.615Z,16.5
2022-12-04T03:12:34.955Z,16.5
2022-12-04T03:13:43.290Z,16.5
2022-12-04T03:14:51.843Z,17.799999
2022-12-04T03:16:00.202Z,17.799999
2022-12-04T03:17:08.647Z,17.799999
2022-12-04T03:18:17.109Z,17.5
2022-12-04T03:19:25.453Z,17.5
2022-12-04T03:20:33.839Z,17.5
2022-12-04T03:21:42.356Z,18.1
2022-12-04T03:22:50.687Z,18.1
2022-12-04T03:23:59.035Z,18.1
2022-12-04T03:25:07.601Z,16.6
2022-12-04T03:26:15.971Z,16.6
2022-12-04T03:27:24.330Z,16.6
2022-12-04T03:28:32.901Z,16.4
2022-12-04T03:29:41.246Z,16.4
2022-12-04T03:30:49.656Z,16.4
2022-12-04T03:31:58.168Z,17.200001
2022-12-04T03:33:06.510Z,17.200001
2022-12-04T03:34:14.865Z,17.200001
2022-12-04T03:35:23.408Z,15.1
2022-12-04T03:36:31.790Z,15.1
2022-12-04T03:37:40.114Z,15.1
2022-12-04T03:38:48.672Z,15.7
2022-12-04T03:39:57.253Z,15.7
2022-12-04T03:41:05.347Z,15.7
2022-12-04T03:42:13.893Z,15.7
2022-12-04T03:43:22.233Z,15.7
2022-12-04T03:44:30.576Z,15.7
2022-12-04T03:45:39.171Z,14.6
2022-12-04T03:46:47.468Z,14.6
2022-12-04T03:47:55.854Z,14.6
2022-12-04T03:49:04.414Z,16.200001
2022-12-04T03:50:12.774Z,16.200001
2022-12-04T03:51:21.122Z,16.200001
2022-12-04T03:52:29.712Z,17.9
2022-12-04T03:53:38.032Z,17.9
2022-12-04T03:54:46.395Z,17.9
2022-12-04T03:55:54.956Z,16.700001
2022-12-04T03:57:03.299Z,16.700001
2022-12-04T03:58:11.651Z,16.700001
2022-12-04T03:59:20.212Z,17.6
2022-12-04T04:00:28.564Z,17.6
2022-12-04T04:01:36.980Z,17.6
2022-12-04T04:02:45.518Z,17.6
2022-12-04T04:03:53.826Z,17.6
2022-12-04T04:05:02.155Z,17.6
2022-12-04T04:06:10.723Z,18.700001
2022-12-04T04:07:19.060Z,18.700001
2022-12-04T04:08:27.489Z,18.700001
2022-12-04T04:09:35.938Z,18
2022-12-04T04:10:44.283Z,18
2022-12-04T04:11:52.629Z,18
2022-12-04T04:13:01.186Z,18
2022-12-04T04:14:09.560Z,18
2022-12-04T04:15:17.871Z,18
2022-12-04T04:16:26.474Z,17
2022-12-04T04:17:38.351Z,17
2022-12-04T04:18:43.140Z,17
2022-12-04T04:19:51.683Z,16.9
2022-12-04T04:21:00.025Z,16.9
2022-12-04T04:22:08.361Z,16.9
2022-12-04T04:23:16.920Z,18.700001
2022-12-04T04:24:25.286Z,18.700001
2022-12-04T04:25:33.620Z,18.700001
2022-12-04T04:26:42.172Z,18.5
2022-12-04T04:27:50.529Z,18.5
2022-12-04T04:28:58.881Z,18.5
2022-12-04T04:30:07.421Z,19.200001
2022-12-04T04:31:15.798Z,19.200001
2022-12-04T04:32:24.123Z,19.200001
2022-12-04T04:33:32.668Z,17.799999
2022-12-04T04:34:41.006Z,17.799999
2022-12-04T04:35:49.345Z,17.799999
2022-12-04T04:36:57.886Z,18.299999
2022-12-04T04:38:06.222Z,18.299999
2022-12-04T04:39:14.571Z,18.299999
2022-12-04T04:40:23.144Z,17.700001
2022-12-04T04:41:31.475Z,17.700001
2022-12-04T04:42:39.845Z,17.700001
2022-12-04T04:43:48.395Z,17.5
2022-12-04T04:44:56.750Z,17.5
2022-12-04T04:46:05.137Z,17.5
2022-12-04T04:47:13.668Z,17.6
2022-12-04T04:48:22.002Z,17.6
2022-12-04T04:49:30.347Z,17.6
2022-12-04T04:50:38.919Z,18.799999
2022-12-04T04:51:47.260Z,18.799999
2022-12-04T04:52:55.587Z,18.799999
2022-12-04T04:54:04.150Z,18.4
2022-12-04T04:55:12.489Z,18.4
2022-12-04T04:56:26.837Z,18.4
2022-12-04T04:57:29.429Z,16.9
2022-12-04T04:58:37.743Z,16.9
2022-12-04T04:59:46.071Z,16.9
2022-12-04T05:00:54.634Z,19.5
2022-12-04T05:02:03.052Z,19.5
2022-12-04T05:03:11.372Z,19.5
2022-12-04T05:04:19.865Z,19.1
2022-12-04T05:05:28.220Z,19.1
2022-12-04T05:06:36.565Z,19.1
2022-12-04T05:07:45.173Z,18.700001
2022-12-04T05:08:53.457Z,18.700001
2022-12-04T05:10:01.797Z,18.700001
2022-12-04T05:11:10.351Z,21.299999
2022-12-04T05:12:18.684Z,21.299999
2022-12-04T05:13:27.105Z,21.299999
2022-12-04T05:14:35.580Z,20.200001
2022-12-04T05:15:43.994Z,20.200001
2022-12-04T05:16:52.295Z,20.200001
2022-12-04T05:18:00.848Z,21.299999
2022-12-04T05:19:09.194Z,21.299999
2022-12-04T05:20:17.534Z,21.299999
2022-12-04T05:21:26.101Z,20.5
2022-12-04T05:22:34.438Z,20.5
2022-12-04T05:23:42.783Z,20.5
2022-12-04T05:24:51.333Z,21.9
2022-12-04T05:25:59.679Z,21.9
2022-12-04T05:27:08.025Z,21.9
2022-12-04T05:28:16.580Z,21.700001
2022-12-04T05:29:24.943Z,21.700001
2022-12-04T05:30:33.262Z,21.700001
2022-12-04T05:31:41.835Z,21.299999
2022-12-04T05:32:50.148Z,21.299999
2022-12-04T05:33:58.492Z,21.299999
2022-12-04T05:35:10.943Z,19.1
2022-12-04T05:36:15.410Z,19.1
2022-12-04T05:37:23.750Z,19.1
2022-12-04T05:38:32.297Z,22.1
2022-12-04T05:39:40.636Z,22.1
2022-12-04T05:40:48.977Z,22.1
2022-12-04T05:41:57.527Z,23.5
2022-12-04T05:43:05.866Z,23.5
2022-12-04T05:44:14.199Z,23.5
2022-12-04T05:45:22.794Z,23.1
2022-12-04T05:46:31.111Z,23.1
2022-12-04T05:47:39.460Z,23.1
2022-12-04T05:48:48.020Z,20.6
2022-12-04T05:49:56.521Z,20.6
2022-12-04T05:51:04.726Z,20.6
2022-12-04T05:52:13.275Z,21.799999
2022-12-04T05:53:21.627Z,21.799999
2022-12-04T05:54:29.976Z,21.799999
2022-12-04T05:55:38.576Z,22.299999
2022-12-04T05:56:46.938Z,22.299999
2022-12-04T05:57:55.280Z,22.299999
2022-12-04T05:59:03.853Z,21.1
2022-12-04T06:00:12.198Z,21.1
2022-12-04T06:01:20.602Z,21.1
2022-12-04T06:02:29.197Z,20.700001
2022-12-04T06:03:37.503Z,20.700001
2022-12-04T06:04:45.817Z,20.700001
2022-12-04T06:05:54.386Z,21.299999
2022-12-04T06:07:02.731Z,21.299999
2022-12-04T06:08:11.146Z,21.299999
2022-12-04T06:09:19.661Z,20.5
2022-12-04T06:10:28.005Z,20.5
2022-12-04T06:11:36.355Z,20.5
2022-12-04T06:12:44.903Z,20.700001
2022-12-04T06:13:53.258Z,20.700001
2022-12-04T06:15:02.419Z,20.700001
2022-12-04T06:16:11.013Z,20.9
2022-12-04T06:17:19.345Z,20.9
2022-12-04T06:18:27.652Z,20.9
2022-12-04T06:19:36.209Z,22.5
2022-12-04T06:20:44.603Z,22.5
2022-12-04T06:21:52.891Z,22.5
2022-12-04T06:23:01.461Z,23.299999
2022-12-04T06:24:09.807Z,23.299999
2022-12-04T06:25:18.175Z,23.299999
2022-12-04T06:26:26.753Z,21.5
2022-12-04T06:27:35.100Z,21.5
2022-12-04T06:28:43.447Z,21.5
2022-12-04T06:29:52.049Z,20.9
2022-12-04T06:31:00.402Z,20.9
2022-12-04T06:32:08.838Z,20.9
2022-12-04T06:33:17.325Z,23.299999
2022-12-04T06:34:25.640Z,23.299999
2022-12-04T06:35:33.983Z,23.299999
2022-12-04T06:36:42.551Z,25.4
2022-12-04T06:37:50.898Z,25.4
2022-12-04T06:38:59.244Z,25.4
2022-12-04T06:40:07.824Z,23.700001
2022-12-04T06:41:16.213Z,23.700001
2022-12-04T06:42:24.545Z,23.700001
2022-12-04T06:43:33.114Z,23.6
2022-12-04T06:44:41.461Z,23.6
2022-12-04T06:45:49.893Z,23.6
2022-12-04T06:47:00.877Z,23.700001
2022-12-04T06:48:06.698Z,23.700001
2022-12-04T06:49:15.065Z,23.700001
2022-12-04T06:50:23.595Z,26
2022-12-04T06:51:31.941Z,26
2022-12-04T06:52:40.275Z,26
2022-12-04T06:53:48.886Z,27.799999
2022-12-04T06:54:57.225Z,27.799999
2022-12-04T06:56:05.691Z,27.799999
2022-12-04T06:57:14.269Z,23.700001
2022-12-04T06:58:22.659Z,23.700001
2022-12-04T06:59:31.052Z,23.700001
2022-12-04T07:00:39.664Z,27.799999
2022-12-04T07:01:48.147Z,27.799999
2022-12-04T07:02:56.304Z,27.799999
2022-12-04T07:04:04.868Z,27.4
2022-12-04T07:05:13.248Z,27.4
2022-12-04T07:06:21.577Z,27.4
2022-12-04T07:07:30.264Z,28.700001
2022-12-04T07:08:38.467Z,28.700001
2022-12-04T07:09:46.813Z,28.700001
2022-12-04T07:10:59.118Z,24.9
2022-12-04T07:12:03.721Z,24.9
2022-12-04T07:13:12.099Z,24.9
2022-12-04T07:14:20.722Z,24.299999
2022-12-04T07:15:29.046Z,24.299999
2022-12-04T07:16:41.022Z,24.299999
2022-12-04T07:17:45.966Z,24.5
2022-12-04T07:18:54.323Z,24.5
2022-12-04T07:20:02.649Z,24.5
2022-12-04T07:21:11.276Z,25.799999
2022-12-04T07:22:19.603Z,25.799999
2022-12-04T07:23:27.966Z,25.799999
2022-12-04T07:24:36.514Z,24.1
2022-12-04T07:25:44.874Z,24.1
2022-12-04T07:26:53.206Z,24.1
2022-12-04T07:28:01.766Z,23.700001
2022-12-04T07:29:10.104Z,23.700001
2022-12-04T07:30:18.504Z,23.700001
2022-12-04T07:31:27.115Z,21.799999
2022-12-04T07:32:35.418Z,21.799999
2022-12-04T07:33:43.789Z,21.799999
2022-12-04T07:34:52.345Z,23.5
2022-12-04T07:36:00.733Z,23.5
2022-12-04T07:37:09.137Z,23.5
2022-12-04T07:38:17.638Z,21
2022-12-04T07:39:25.994Z,21
2022-12-04T07:40:34.338Z,21
2022-12-04T07:41:43.057Z,21.700001
2022-12-04T07:42:51.424Z,21.700001
2022-12-04T07:43:59.873Z,21.700001
2022-12-04T07:45:08.405Z,22.799999
2022-12-04T07:46:16.896Z,22.799999
2022-12-04T07:47:25.127Z,22.799999
2022-12-04T07:48:33.804Z,22.1
2022-12-04T07:49:42.047Z,22.1
2022-12-04T07:50:50.400Z,22.1
2022-12-04T07:51:58.969Z,21.9
2022-12-04T07:53:07.345Z,21.9
2022-12-04T07:54:15.667Z,21.9
2022-12-04T07:55:24.221Z,22.1
2022-12-04T07:56:32.567Z,22.1
2022-12-04T07:57:40.908Z,22.1
2022-12-04T07:58:49.465Z,20.9
2022-12-04T07:59:58.023Z,20.9
2022-12-04T08:01:06.249Z,20.9
2022-12-04T08:02:14.750Z,19.4
2022-12-04T08:03:23.109Z,19.4
2022-12-04T08:04:31.516Z,19.4
2022-12-04T08:05:40.028Z,19.200001
2022-12-04T08:06:48.373Z,19.200001
2022-12-04T08:07:56.825Z,19.200001
2022-12-04T08:09:09.689Z,18.5
2022-12-04T08:10:13.621Z,18.5
2022-12-04T08:11:21.972Z,18.5
2022-12-04T08:12:30.532Z,18.9
2022-12-04T08:13:38.896Z,18.9
2022-12-04T08:14:47.239Z,18.9
2022-12-04T08:15:55.811Z,17.9
2022-12-04T08:17:04.201Z,17.9
2022-12-04T08:18:12.501Z,17.9
2022-12-04T08:19:21.050Z,17.700001
2022-12-04T08:20:29.475Z,17.700001
2022-12-04T08:21:37.815Z,17.700001
2022-12-04T08:22:46.371Z,18.4
2022-12-04T08:23:54.722Z,18.4
2022-12-04T08:25:03.100Z,18.4
2022-12-04T08:26:11.631Z,17.4
2022-12-04T08:27:19.988Z,17.4
2022-12-04T08:28:28.327Z,17.4
2022-12-04T08:29:36.877Z,17.4
2022-12-04T08:30:45.282Z,17.4
2022-12-04T08:31:53.584Z,17.4
2022-12-04T08:33:02.146Z,17.5
2022-12-04T08:34:10.509Z,17.5
2022-12-04T08:35:18.869Z,17.5
2022-12-04T08:36:27.431Z,16.200001
2022-12-04T08:37:35.776Z,16.200001
2022-12-04T08:38:44.124Z,16.200001
2022-12-04T08:39:52.901Z,17.4
2022-12-04T08:41:01.040Z,17.4
2022-12-04T08:42:09.354Z,17.4
2022-12-04T08:43:17.904Z,18.700001
2022-12-04T08:44:26.242Z,18.700001
2022-12-04T08:45:34.577Z,18.700001
2022-12-04T08:46:43.260Z,17.6
2022-12-04T08:47:52.538Z,17.6
2022-12-04T08:48:59.867Z,17.6
2022-12-04T08:50:08.411Z,17.200001
2022-12-04T08:51:16.747Z,17.200001
2022-12-04T08:52:25.090Z,17.200001
2022-12-04T08:53:33.648Z,16.9
2022-12-04T08:54:41.981Z,16.9
2022-12-04T08:55:50.349Z,16.9
2022-12-04T08:56:58.922Z,15.6
2022-12-04T08:58:07.235Z,15.6
2022-12-04T08:59:15.587Z,15.6
2022-12-04T09:00:24.140Z,15.6
2022-12-04T09:01:32.578Z,15.6
2022-12-04T09:02:40.845Z,15.6
2022-12-04T09:03:49.404Z,16.9
2022-12-04T09:04:57.840Z,16.9
2022-12-04T09:06:06.103Z,16.9
2022-12-04T09:07:14.654Z,16.700001
2022-12-04T09:08:23.036Z,16.700001
2022-12-04T09:09:31.335Z,16.700001
2022-12-04T09:10:39.894Z,17.4
2022-12-04T09:11:48.232Z,17.4
2022-12-04T09:12:56.684Z,17.4
2022-12-04T09:14:05.195Z,19.4
2022-12-04T09:15:13.562Z,19.4
2022-12-04T09:16:22.784Z,19.4
2022-12-04T09:17:31.260Z,17.799999
2022-12-04T09:18:39.676Z,17.799999
2022-12-04T09:19:48.007Z,17.799999
2022-12-04T09:20:57.003Z,16.5
2022-12-04T09:22:09.215Z,16.5
2022-12-04T09:23:18.069Z,16.5
2022-12-04T09:24:27.469Z,20
2022-12-04T09:25:37.809Z,20
2022-12-04T09:26:46.957Z,20
2022-12-04T09:27:57.870Z,18.200001
2022-12-04T09:29:06.379Z,18.200001
2022-12-04T09:32:20.296Z,17.299999
2022-12-04T09:33:36.260Z,17.299999
2022-12-04T09:34:48.278Z,17.299999
2022-12-04T09:35:57.488Z,19.9
2022-12-04T09:37:05.857Z,19.9
2022-12-04T09:38:15.106Z,19.9
2022-12-04T09:39:23.732Z,18.4
2022-12-04T09:40:37.405Z,18.4
2022-12-04T09:41:40.814Z,18.4
2022-12-04T09:42:49.986Z,21.6
2022-12-04T09:44:00.420Z,21.6
2022-12-04T09:45:09.146Z,21.6
2022-12-04T09:46:17.748Z,21.299999
2022-12-04T09:47:26.045Z,21.299999
2022-12-04T09:48:34.735Z,21.299999
2022-12-04T09:49:44.135Z,20.1
2022-12-04T09:50:52.664Z,20.1
2022-12-04T09:52:02.090Z,20.1
2022-12-04T09:53:10.869Z,19.200001
2022-12-04T09:54:19.335Z,19.200001
2022-12-04T09:55:27.747Z,19.200001
2022-12-04T09:56:37.123Z,18.299999
2022-12-04T09:57:45.909Z,18.299999
2022-12-04T09:58:54.476Z,18.299999
2022-12-04T10:00:03.638Z,18.200001
2022-12-04T10:01:12.185Z,18.200001
2022-12-04T10:02:20.733Z,18.200001
2022-12-04T10:03:29.235Z,18.5
2022-12-04T10:04:37.504Z,18.5
2022-12-04T10:05:46.149Z,18.5
2022-12-04T10:06:54.675Z,17.4
2022-12-04T10:08:03.182Z,17.4
2022-12-04T10:09:11.376Z,17.4
2022-12-04T10:10:19.914Z,19.200001
2022-12-04T10:11:32.451Z,19.200001
2022-12-04T10:12:36.717Z,19.200001
2022-12-04T10:13:45.284Z,21.200001
2022-12-04T10:14:53.618Z,21.200001
2022-12-04T10:16:02.030Z,21.200001
2022-12-04T10:17:10.549Z,21.9
2022-12-04T10:18:18.873Z,21.9
2022-12-04T10:19:27.210Z,21.9
2022-12-04T10:20:35.757Z,18.5
2022-12-04T10:21:44.106Z,18.5
2022-12-04T10:22:52.429Z,18.5
2022-12-04T10:24:00.990Z,20.4
2022-12-04T10:25:09.328Z,20.4
2022-12-04T10:26:17.681Z,20.4
2022-12-04T10:27:26.228Z,20.5
2022-12-04T10:28:34.575Z,20.5
2022-12-04T10:29:43.076Z,20.5
2022-12-04T10:30:51.646Z,22.9
2022-12-04T10:31:59.977Z,22.9
2022-12-04T10:33:08.318Z,22.9
2022-12-04T10:34:16.844Z,20.799999
2022-12-04T10:35:25.181Z,20.799999
2022-12-04T10:36:33.528Z,20.799999
2022-12-04T10:37:42.076Z,22.200001
2022-12-04T10:38:50.408Z,22.200001
2022-12-04T10:39:58.979Z,22.200001
2022-12-04T10:41:11.637Z,26.299999
2022-12-04T10:42:15.651Z,26.299999
2022-12-04T10:43:23.993Z,26.299999
2022-12-04T10:44:32.531Z,20.1
2022-12-04T10:45:40.878Z,20.1
2022-12-04T10:46:49.274Z,20.1
2022-12-04T10:47:57.786Z,20.700001
2022-12-04T10:49:06.146Z,20.700001
2022-12-04T10:50:14.464Z,20.700001
2022-12-04T10:51:23.033Z,19.200001
2022-12-04T10:52:31.381Z,19.200001
2022-12-04T10:53:39.724Z,19.200001
2022-12-04T10:54:48.288Z,18.200001
2022-12-04T10:55:56.623Z,18.200001
2022-12-04T10:57:04.968Z,18.200001
2022-12-04T10:58:13.524Z,17.1
2022-12-04T10:59:21.861Z,17.1
2022-12-04T11:00:30.200Z,17.1
2022-12-04T11:01:38.813Z,17
2022-12-04T11:02:47.279Z,17
2022-12-04T11:03:55.437Z,17
2022-12-04T11:05:04.008Z,17.5
2022-12-04T11:06:12.333Z,17.5
2022-12-04T11:07:20.678Z,17.5
2022-12-04T11:08:29.307Z,17.5
2022-12-04T11:09:37.578Z,17.5
2022-12-04T11:10:45.929Z,17.5
2022-12-04T11:11:54.470Z,17.799999
2022-12-04T11:13:02.813Z,17.799999
2022-12-04T11:14:11.173Z,17.799999
2022-12-04T11:15:19.710Z,18.4
2022-12-04T11:16:28.094Z,18.4
2022-12-04T11:17:36.402Z,18.4
2022-12-04T11:18:44.953Z,16.799999
2022-12-04T11:19:53.539Z,16.799999
2022-12-04T11:21:01.663Z,16.799999
2022-12-04T11:22:10.195Z,17.700001
2022-12-04T11:23:18.539Z,17.700001
2022-12-04T11:24:26.860Z,17.700001
2022-12-04T11:25:35.396Z,18
2022-12-04T11:26:43.742Z,18
2022-12-04T11:27:52.064Z,18
2022-12-04T11:29:00.614Z,17.5
2022-12-04T11:30:08.952Z,17.5
2022-12-04T11:31:17.332Z,17.5
2022-12-04T11:32:25.848Z,19.1
2022-12-04T11:33:34.190Z,19.1
2022-12-04T11:34:42.532Z,19.1
2022-12-04T11:35:51.096Z,16.9
2022-12-04T11:36:59.487Z,16.9
2022-12-04T11:38:07.814Z,16.9
2022-12-04T11:39:16.355Z,16.200001
2022-12-04T11:40:24.701Z,16.200001
2022-12-04T11:41:33.065Z,16.200001
2022-12-04T11:42:41.609Z,16.200001
2022-12-04T11:43:49.950Z,16.200001
2022-12-04T11:44:58.282Z,16.200001
2022-12-04T11:46:06.851Z,16.700001
2022-12-04T11:47:15.195Z,16.700001
2022-12-04T11:48:23.543Z,16.700001
2022-12-04T11:49:32.091Z,16.700001
2022-12-04T11:50:40.452Z,16.700001
2022-12-04T11:51:48.783Z,16.700001
2022-12-04T11:52:57.365Z,17.5
2022-12-04T11:54:05.698Z,17.5
2022-12-04T11:55:14.021Z,17.5
2022-12-04T11:56:22.609Z,18.200001
2022-12-04T11:57:30.946Z,18.200001
2022-12-04T11:58:39.293Z,18.200001
2022-12-04T11:59:47.830Z,18.700001
2022-12-04T12:00:56.207Z,18.700001
2022-12-04T12:02:04.600Z,18.700001
2022-12-04T12:03:13.181Z,16.299999
2022-12-04T12:04:21.456Z,16.299999
2022-12-04T12:05:29.808Z,16.299999
2022-12-04T12:06:38.356Z,17.1
2022-12-04T12:07:46.749Z,17.1
2022-12-04T12:08:55.109Z,17.1
2022-12-04T12:10:03.624Z,19
2022-12-04T12:11:11.980Z,19
2022-12-04T12:12:20.341Z,19
2022-12-04T12:13:28.884Z,18.5
2022-12-04T12:14:37.244Z,18.5
2022-12-04T12:15:45.585Z,18.5
2022-12-04T12:18:02.510Z,19.1
2022-12-04T12:19:10.848Z,19.1
2022-12-04T12:20:19.418Z,19.4
2022-12-04T12:21:27.765Z,19.4
2022-12-04T12:22:36.124Z,19.4
2022-12-04T12:23:44.679Z,16.700001
2022-12-04T12:24:53.041Z,16.700001
2022-12-04T12:26:01.374Z,16.700001
2022-12-04T12:27:09.931Z,18.6
2022-12-04T12:28:18.265Z,18.6
2022-12-04T12:29:26.606Z,18.6
2022-12-04T12:30:35.164Z,17.6
2022-12-04T12:31:43.595Z,17.6
2022-12-04T12:32:51.879Z,17.6
2022-12-04T12:34:00.428Z,19.4
2022-12-04T12:35:08.781Z,19.4
2022-12-04T12:36:17.128Z,19.4
2022-12-04T12:37:25.707Z,18.6
2022-12-04T12:38:34.041Z,18.6
2022-12-04T12:39:42.367Z,18.6
2022-12-04T12:40:50.957Z,19.9
2022-12-04T12:41:59.289Z,19.9
2022-12-04T12:43:07.701Z,19.9
2022-12-04T12:44:16.189Z,19.9
2022-12-04T12:45:24.550Z,19.9
2022-12-04T12:46:32.962Z,19.9
2022-12-04T12:47:41.469Z,20.700001
2022-12-04T12:48:52.518Z,20.700001
2022-12-04T12:49:58.395Z,20.700001
2022-12-04T12:51:28.902Z,21.1
2022-12-04T12:52:15.078Z,21.1
2022-12-04T12:53:23.444Z,21.1
2022-12-04T12:54:31.992Z,21
2022-12-04T12:55:40.332Z,21
2022-12-04T12:56:49.844Z,21
2022-12-04T12:57:57.264Z,21.1
2022-12-04T12:59:05.602Z,21.1
2022-12-04T13:00:13.967Z,21.1
2022-12-04T13:01:22.622Z,20.9
2022-12-04T13:02:30.934Z,20.9
2022-12-04T13:03:39.203Z,20.9
2022-12-04T13:04:47.798Z,21
2022-12-04T13:05:56.167Z,21
2022-12-04T13:07:04.521Z,21
2022-12-04T13:08:13.130Z,22.200001
2022-12-04T13:09:21.430Z,22.200001
2022-12-04T13:10:29.962Z,22.200001
2022-12-04T13:11:38.449Z,22.1
2022-12-04T13:12:46.806Z,22.1
2022-12-04T13:13:55.103Z,22.1
2022-12-04T13:15:03.681Z,21.4
2022-12-04T13:16:12.843Z,21.4
2022-12-04T13:17:21.122Z,21.4
2022-12-04T13:18:29.708Z,21.700001
2022-12-04T13:19:38.049Z,21.700001
2022-12-04T13:20:46.423Z,21.700001
2022-12-04T13:21:54.993Z,21.6
2022-12-04T13:23:04.237Z,21.6
2022-12-04T13:24:12.760Z,21.6
2022-12-04T13:25:21.348Z,22.5
2022-12-04T13:26:29.772Z,22.5
2022-12-04T13:27:39.088Z,22.5
2022-12-04T13:28:48.202Z,23.799999
2022-12-04T13:29:56.771Z,23.799999
2022-12-04T13:31:04.963Z,23.799999
2022-12-04T13:32:13.672Z,22.9
2022-12-04T13:33:21.941Z,22.9
2022-12-04T13:34:30.344Z,22.9
2022-12-04T13:35:40.004Z,23.6
2022-12-04T13:37:21.513Z,23.6
2022-12-04T13:38:35.966Z,23.6
2022-12-04T13:39:46.231Z,30.200001
2022-12-04T13:40:55.773Z,30.200001
2022-12-04T13:44:43.010Z,28.6
2022-12-04T13:45:58.539Z,28.6
2022-12-04T13:47:09.304Z,28.6
2022-12-04T13:48:18.869Z,25.9
2022-12-04T13:49:28.070Z,25.9
2022-12-04T13:50:57.703Z,25.9
2022-12-04T13:52:13.838Z,26
2022-12-04T13:53:25.537Z,26
2022-12-04T13:54:34.831Z,26
2022-12-04T13:55:46.133Z,24.9
2022-12-04T13:56:59.549Z,24.9
2022-12-04T13:58:13.773Z,24.9
2022-12-04T13:59:29.829Z,25.6
2022-12-04T14:00:40.580Z,25.6
2022-12-04T14:02:01.228Z,25.6
2022-12-04T14:03:24.795Z,23.299999
2022-12-04T14:04:36.653Z,23.299999
2022-12-04T14:06:04.662Z,23.299999
2022-12-04T14:07:19.400Z,23.6
2022-12-04T14:08:33.345Z,23.6
2022-12-04T14:09:53.173Z,23.6
2022-12-04T14:11:18.300Z,24.200001
2022-12-04T14:14:34.166Z,24.200001
2022-12-04T14:15:43.451Z,23
2022-12-04T14:16:54.457Z,23
2022-12-04T14:18:03.519Z,23
2022-12-04T14:19:17.365Z,22.200001
2022-12-04T14:20:29.265Z,22.200001
2022-12-04T14:21:37.779Z,22.200001
2022-12-04T14:22:46.393Z,22.200001
2022-12-04T14:23:54.782Z,22.200001
2022-12-04T14:25:03.176Z,22.200001
2022-12-04T14:26:11.768Z,23
2022-12-04T14:27:20.203Z,23
2022-12-04T14:28:28.564Z,23
2022-12-04T14:29:37.255Z,22.799999
2022-12-04T14:30:45.680Z,22.799999
2022-12-04T15:04:14.886Z,0
2022-12-04T15:05:23.152Z,0
2022-12-04T15:06:31.574Z,0
2022-12-04T15:07:40.204Z,26.799999
2022-12-04T15:08:48.567Z,26.799999
2022-12-04T15:09:56.959Z,26.799999